»·PEaware :: N255HF KBFL-KMHV

N255HF :: KBFL-KMHV

FLIGHT INFORMATION

Flight Status: Arrived
Operator: Privately registered:
United States
More flights under this callsign
Pilot: Will S. (45457)
Aircraft: BEECH AIRCRAFT BARON
(BE58)
More flights by this aircraft type
Origin: KBFL Meadows
United States
Destination: KMHV Mojave
United States
More flights between these airports :: More routes between these airports
Route:
File this flight plan on PilotEdge
Remarks:
Altitude:
(Current/Filed)
9,500ft
Speed:
(Current/Filed)
160kts
Departed: 26-Oct-23 05:24 PM
Arrived: 26-Oct-23 05:46 PM
Distance/Time
Traveled:
121nm/0:22
Distance/Time
To Go:
Arrived

Flight Plot

Page will automatically refresh every two minutes.


Map Options




Map Legend


Flown Route
Filed Route
Departure Airport
Arrival Airport
Navaid (VOR, NDB)
Fix

Horizontal Profiles

Position Reports

Time Latitude Longitude Heading Altitude Ground
Speed
26-Oct-23 17:07 35.429666 -119.046625 136 495ft 0kts
26-Oct-23 17:07 35.429666 -119.046625 136 495ft 0kts
26-Oct-23 17:08 35.429666 -119.046625 136 495ft 0kts
26-Oct-23 17:10 35.429666 -119.046625 136 495ft 0kts
26-Oct-23 17:11 35.429666 -119.046625 136 495ft 0kts
26-Oct-23 17:12 35.429666 -119.046625 136 495ft 0kts
26-Oct-23 17:13 35.429666 -119.046625 136 495ft 0kts
26-Oct-23 17:13 35.429666 -119.046625 136 495ft 0kts
26-Oct-23 17:14 35.429666 -119.046625 136 495ft 0kts
26-Oct-23 17:15 35.429666 -119.046625 136 495ft 0kts
26-Oct-23 17:16 35.429666 -119.046625 136 495ft 0kts
26-Oct-23 17:18 35.429666 -119.046625 136 495ft 0kts
26-Oct-23 17:18 35.429666 -119.046625 136 495ft 0kts
26-Oct-23 17:19 35.428656 -119.046983 214 490ft 12kts
26-Oct-23 17:20 35.425917 -119.044897 219 480ft 0kts
26-Oct-23 17:21 35.425917 -119.044897 219 480ft 0kts
26-Oct-23 17:22 35.425916 -119.044898 219 480ft 0kts
26-Oct-23 17:23 35.428361 -119.049605 315 482ft 89kts
26-Oct-23 17:24 35.450468 -119.072686 9 1893ft 119kts
26-Oct-23 17:25 35.443472 -119.035417 133 2882ft 166kts
26-Oct-23 17:26 35.413191 -118.999040 135 4434ft 142kts
26-Oct-23 17:27 35.387707 -118.963021 111 5690ft 139kts
26-Oct-23 17:28 35.375242 -118.918278 111 6815ft 139kts
26-Oct-23 17:29 35.358945 -118.874859 115 7819ft 141kts
26-Oct-23 17:30 35.341460 -118.831463 116 8734ft 144kts
26-Oct-23 17:31 35.323545 -118.787732 116 9621ft 143kts
26-Oct-23 17:32 35.302716 -118.737140 116 9690ft 182kts
26-Oct-23 17:33 35.279456 -118.680740 117 9698ft 188kts
26-Oct-23 17:34 35.255580 -118.622918 116 9708ft 191kts
26-Oct-23 17:35 35.231501 -118.564720 116 9694ft 192kts
26-Oct-23 17:36 35.207343 -118.506448 117 9712ft 190kts
26-Oct-23 17:37 35.183103 -118.448085 117 9498ft 196kts
26-Oct-23 17:38 35.158260 -118.388363 116 8936ft 195kts
26-Oct-23 17:39 35.133642 -118.329285 117 8258ft 194kts
26-Oct-23 17:40 35.111556 -118.270272 102 7553ft 186kts
26-Oct-23 17:41 35.101083 -118.210106 106 5806ft 181kts
26-Oct-23 17:42 35.076552 -118.165581 172 3994ft 148kts
26-Oct-23 17:43 35.064032 -118.138290 68 3220ft 115kts
26-Oct-23 17:44 35.058765 -118.126821 274 2978ft 88kts
26-Oct-23 17:45 35.059210 -118.152718 271 2756ft 37kts
26-Oct-23 17:46 35.058317 -118.157808 184 2762ft 0kts
26-Oct-23 17:47 35.057003 -118.158976 254 2762ft 10kts
26-Oct-23 17:48 35.056978 -118.159113 260 2762ft 0kts
26-Oct-23 17:49 35.056978 -118.159113 260 2762ft 0kts
26-Oct-23 17:50 35.056978 -118.159113 260 2762ft 0kts
26-Oct-23 17:51 34.102425 -117.224717 94 1146ft 0kts
26-Oct-23 17:52 34.102425 -117.224717 94 1146ft 0kts
26-Oct-23 17:53 34.102425 -117.224717 94 1146ft 0kts
26-Oct-23 17:54 34.102425 -117.224717 94 1146ft 0kts
26-Oct-23 17:55 34.102425 -117.224717 94 1146ft 0kts
26-Oct-23 17:56 34.102425 -117.224717 94 1146ft 0kts
26-Oct-23 17:57 34.102425 -117.224717 94 1146ft 0kts
26-Oct-23 17:58 34.102425 -117.224717 94 1146ft 0kts
26-Oct-23 17:59 34.102425 -117.224717 94 1146ft 0kts

Navigation Log

Ident Type
Flight plan parsing failed, navigation log unavailable